METAR AND TAF INFORMATION
METAR FOR SBDN
ADDS - METARS form results

(0515 UTC 21 February 2019)
Data provider http://aviationweather.gov/metar/data/
 
Forecast for: SBDN (PRESIDENTE PRUDE, BR)
Text: TAF SBDN 202200Z 2100/2112 04005KT 9999 FEW035 TN21/2108Z TX25/2112Z RMK PCX
Forecast period: 0000 to 1200 UTC 21 February 2019
Forecast type: FROM: standard forecast or significant change
Winds: from the NE (40 degrees) at 6 MPH (5 knots; 2.6 m/s)
Visibility: 6 or more miles 10+ km)
Ceiling: at least 12,000 feet AGL
Clouds: few clouds at 3500 feet AGL
Weather: no significant weather forecast for this period

 AIRPORT MAP

 RUNWAY INFORMATION
Runway 12 Runway length 6923 ft Runway width 115 ft
Runway elevation 0 ft Runway displaced threshold 0 ft Runway heading 0
Runway 30 Runway length 6923 ft Runway width 115 ft
Runway elevation 0 ft Runway displaced threshold 0 ft Runway heading 0

 AIRPORT FREQUENCIES
Type AFIS Name PRUDENTE R Frequency 118.45 MHZ
Type APP Name PRUDENTE A Frequency 118.45 MHZ
Type TWR Name PRUDENTE T Frequency 118.45 MHZ

 AIRPORT NEAR NAVIGATION AIDS
Type VOR-DME Name Prudente Frequency 113500 KHZ
Type NDB Name Prudente Frequency 225 KHZ